createdAt,value
2018-07-19T00:01:08.870Z,19.50
2018-07-19T00:06:12.131Z,19.40
2018-07-19T00:11:15.318Z,19.30
2018-07-19T00:16:18.538Z,19.40
2018-07-19T00:21:21.762Z,19.20
2018-07-19T00:26:24.967Z,19.30
2018-07-19T00:31:28.241Z,19.20
2018-07-19T00:36:31.469Z,19.10
2018-07-19T00:41:34.700Z,19.10
2018-07-19T00:46:38.134Z,19.00
2018-07-19T00:51:41.369Z,19.00
2018-07-19T00:56:44.563Z,19.00
2018-07-19T01:01:47.749Z,19.00
2018-07-19T01:06:50.989Z,19.00
2018-07-19T01:11:54.206Z,18.90
2018-07-19T01:16:57.409Z,18.80
2018-07-19T01:27:03.615Z,18.50
2018-07-19T01:32:06.901Z,18.40
2018-07-19T01:37:10.163Z,18.40
2018-07-19T01:42:29.019Z,18.30
2018-07-19T01:47:32.209Z,18.30
2018-07-19T01:52:35.393Z,18.30
2018-07-19T01:57:38.589Z,18.10
2018-07-19T02:02:41.790Z,18.20
2018-07-19T02:07:44.985Z,18.10
2018-07-19T02:12:48.178Z,18.20
2018-07-19T02:17:51.361Z,18.10
2018-07-19T02:22:54.569Z,18.00
2018-07-19T02:27:57.774Z,18.10
2018-07-19T02:33:00.974Z,18.00
2018-07-19T02:38:04.258Z,17.90
2018-07-19T02:43:07.463Z,17.70
2018-07-19T02:48:10.657Z,17.70
2018-07-19T02:53:13.920Z,17.70
2018-07-19T02:58:17.077Z,17.60
2018-07-19T03:03:20.254Z,17.60
2018-07-19T03:08:23.431Z,17.50
2018-07-19T03:13:27.618Z,17.50
2018-07-19T03:18:30.774Z,17.40
2018-07-19T03:23:33.913Z,17.50
2018-07-19T03:28:37.118Z,17.50
2018-07-19T03:33:40.255Z,17.50
2018-07-19T03:38:43.406Z,17.40
2018-07-19T03:43:46.573Z,17.30
2018-07-19T03:48:49.725Z,17.50
2018-07-19T03:53:53.893Z,17.40
2018-07-19T03:58:57.078Z,17.30
2018-07-19T04:04:01.387Z,17.40
2018-07-19T04:09:06.374Z,17.30
2018-07-19T04:14:09.625Z,17.30
2018-07-19T04:19:12.837Z,17.10
2018-07-19T04:24:16.062Z,17.10
2018-07-19T04:29:20.879Z,17.10
2018-07-19T04:34:24.379Z,17.30
2018-07-19T04:39:27.641Z,17.20
2018-07-19T04:44:30.840Z,17.30
2018-07-19T04:49:34.080Z,17.30
2018-07-19T04:54:37.310Z,17.30
2018-07-19T04:59:40.438Z,17.30
2018-07-19T05:04:43.669Z,17.30
2018-07-19T05:09:46.907Z,17.40
2018-07-19T05:14:50.078Z,17.50
2018-07-19T05:19:53.233Z,17.50
2018-07-19T05:24:56.405Z,17.60
2018-07-19T05:29:59.589Z,17.60
2018-07-19T05:35:02.751Z,17.70
2018-07-19T05:40:05.910Z,17.80
2018-07-19T05:45:09.116Z,18.00
2018-07-19T05:50:12.335Z,18.10
2018-07-19T05:55:15.485Z,18.30
2018-07-19T06:00:18.689Z,18.50
2018-07-19T06:05:21.954Z,18.90
2018-07-19T06:10:25.187Z,19.10
2018-07-19T06:15:28.390Z,19.30
2018-07-19T06:20:31.621Z,19.40
2018-07-19T06:25:35.650Z,19.50
2018-07-19T06:30:38.986Z,19.60
2018-07-19T06:35:42.223Z,19.70
2018-07-19T06:40:45.453Z,19.90
2018-07-19T06:45:48.754Z,20.10
2018-07-19T06:50:52.077Z,20.30
2018-07-19T06:55:55.389Z,20.40
2018-07-19T07:00:58.637Z,20.50
2018-07-19T07:06:01.827Z,20.60
2018-07-19T07:11:05.038Z,20.60
2018-07-19T07:16:08.246Z,20.90
2018-07-19T07:21:11.933Z,20.90
2018-07-19T07:26:15.097Z,21.00
2018-07-19T07:31:18.273Z,21.20
2018-07-19T07:36:21.465Z,21.20
2018-07-19T07:41:24.675Z,21.30
2018-07-19T07:46:27.854Z,21.40
2018-07-19T07:51:31.060Z,21.50
2018-07-19T07:56:34.293Z,21.80
2018-07-19T08:01:37.534Z,21.90
2018-07-19T08:06:40.774Z,22.30
2018-07-19T08:11:43.986Z,22.40
2018-07-19T08:16:47.225Z,22.40
2018-07-19T08:21:50.475Z,22.90
2018-07-19T08:26:53.675Z,22.90
2018-07-19T08:31:56.935Z,23.00
2018-07-19T08:37:00.135Z,23.20
2018-07-19T08:42:03.344Z,23.40
2018-07-19T08:47:06.674Z,23.80
2018-07-19T08:52:09.912Z,23.70
2018-07-19T08:57:13.288Z,23.80
2018-07-19T09:02:16.456Z,24.10
2018-07-19T09:07:20.638Z,24.40
2018-07-19T09:12:23.853Z,24.00
2018-07-19T09:18:30.445Z,24.20
2018-07-19T09:23:33.744Z,24.30
2018-07-19T09:28:36.918Z,24.50
2018-07-19T09:33:40.082Z,24.60
2018-07-19T09:38:43.346Z,24.80
2018-07-19T09:43:46.536Z,24.80
2018-07-19T09:48:49.954Z,24.90
2018-07-19T09:53:53.070Z,25.10
2018-07-19T09:58:56.318Z,25.20
2018-07-19T10:03:59.569Z,25.60
2018-07-19T10:09:02.883Z,25.70
2018-07-19T10:14:06.377Z,26.00
2018-07-19T10:19:09.578Z,26.10
2018-07-19T10:24:12.787Z,26.20
2018-07-19T10:29:15.990Z,26.20
2018-07-19T10:34:19.300Z,25.60
2018-07-19T10:39:22.513Z,25.60
2018-07-19T10:44:25.842Z,25.20
2018-07-19T10:49:29.107Z,25.00
2018-07-19T10:54:32.351Z,25.00
2018-07-19T10:59:35.525Z,25.50
2018-07-19T11:04:38.706Z,26.00
2018-07-19T11:09:41.933Z,26.30
2018-07-19T11:14:45.090Z,25.50
2018-07-19T11:19:48.249Z,25.10
2018-07-19T11:24:51.626Z,25.20
2018-07-19T11:29:54.793Z,25.50
2018-07-19T11:34:57.971Z,25.80
2018-07-19T11:40:01.168Z,25.60
2018-07-19T11:45:04.622Z,25.40
2018-07-19T11:55:10.733Z,25.60
2018-07-19T12:05:17.038Z,26.90
2018-07-19T12:10:20.243Z,27.20
2018-07-19T12:15:23.505Z,27.70
2018-07-19T12:20:26.736Z,27.60
2018-07-19T12:25:29.987Z,27.30
2018-07-19T12:30:33.830Z,26.40
2018-07-19T12:35:37.046Z,27.10
2018-07-19T12:40:40.289Z,27.00
2018-07-19T12:45:43.512Z,26.80
2018-07-19T12:50:46.749Z,27.30
2018-07-19T12:55:49.986Z,27.50
2018-07-19T13:05:56.223Z,27.70
2018-07-19T13:10:59.611Z,27.80
2018-07-19T13:16:02.838Z,28.30
2018-07-19T13:21:06.103Z,28.10
2018-07-19T13:26:09.371Z,27.70
2018-07-19T13:31:12.632Z,27.80
2018-07-19T13:36:15.787Z,27.90
2018-07-19T13:41:19.272Z,28.10
2018-07-19T13:46:22.448Z,28.30
2018-07-19T13:51:25.648Z,28.30
2018-07-19T13:56:28.834Z,28.30
2018-07-19T14:01:32.006Z,28.10
2018-07-19T14:06:35.198Z,28.20
2018-07-19T14:11:38.467Z,28.60
2018-07-19T14:16:41.624Z,28.10
2018-07-19T14:21:44.781Z,28.00
2018-07-19T14:26:47.935Z,27.80
2018-07-19T14:31:51.161Z,27.60
2018-07-19T14:36:54.305Z,27.40
2018-07-19T14:41:57.557Z,27.50
2018-07-19T14:47:00.670Z,27.70
2018-07-19T14:52:04.478Z,27.70
2018-07-19T14:57:07.633Z,27.40
2018-07-19T15:02:10.822Z,26.90
2018-07-19T15:07:14.019Z,26.90
2018-07-19T15:12:17.249Z,26.90
2018-07-19T15:17:20.554Z,26.80
2018-07-19T15:22:23.902Z,26.60
2018-07-19T15:27:27.138Z,26.70
2018-07-19T15:32:30.393Z,26.70
2018-07-19T15:37:33.662Z,26.40
2018-07-19T15:42:36.927Z,26.30
2018-07-19T15:47:40.133Z,26.50
2018-07-19T15:52:43.339Z,26.50
2018-07-19T15:57:46.538Z,26.90
2018-07-19T16:02:49.829Z,27.00
2018-07-19T16:07:53.059Z,26.80
2018-07-19T16:12:56.286Z,26.80
2018-07-19T16:17:59.541Z,27.10
2018-07-19T16:23:02.887Z,27.00
2018-07-19T16:28:06.133Z,26.90
2018-07-19T16:33:09.435Z,27.00
2018-07-19T16:38:12.669Z,26.90
2018-07-19T16:43:15.987Z,27.10
2018-07-19T16:48:19.202Z,27.10
2018-07-19T16:53:22.486Z,27.00
2018-07-19T16:58:25.723Z,27.00
2018-07-19T17:03:28.892Z,26.90
2018-07-19T17:08:32.112Z,26.90
2018-07-19T17:13:35.322Z,26.70
2018-07-19T17:18:38.634Z,26.60
2018-07-19T17:28:44.874Z,26.60
2018-07-19T17:33:48.094Z,26.50
2018-07-19T17:38:51.330Z,26.60
2018-07-19T17:43:54.509Z,26.50
2018-07-19T17:48:57.730Z,26.50
2018-07-19T17:54:00.927Z,26.50
2018-07-19T17:59:04.103Z,26.30
2018-07-19T18:04:07.270Z,26.10
2018-07-19T18:09:11.418Z,26.10
2018-07-19T18:14:14.593Z,25.90
2018-07-19T18:19:17.742Z,25.70
2018-07-19T18:24:20.895Z,25.70
2018-07-19T18:29:24.102Z,25.60
2018-07-19T18:34:27.821Z,25.50
2018-07-19T18:39:31.023Z,25.40
2018-07-19T18:44:34.230Z,25.40
2018-07-19T18:49:37.406Z,25.40
2018-07-19T18:54:40.608Z,25.30
2018-07-19T18:59:43.850Z,25.10
2018-07-19T19:04:47.406Z,25.00
2018-07-19T19:09:50.612Z,25.00
2018-07-19T19:14:53.861Z,24.90
2018-07-19T19:19:57.072Z,24.80
2018-07-19T19:25:00.243Z,24.70
2018-07-19T19:30:03.410Z,24.60
2018-07-19T19:35:06.662Z,24.50
2018-07-19T19:40:09.923Z,24.30
2018-07-19T19:45:13.090Z,24.20
2018-07-19T19:50:16.305Z,24.10
2018-07-19T19:55:19.467Z,24.00
2018-07-19T20:00:22.677Z,23.90
2018-07-19T20:05:25.950Z,23.60
2018-07-19T20:10:29.162Z,23.60
2018-07-19T20:15:32.446Z,23.40
2018-07-19T20:20:35.698Z,23.30
2018-07-19T20:25:38.966Z,23.20
2018-07-19T20:30:42.227Z,23.20
2018-07-19T20:35:45.458Z,23.20
2018-07-19T20:40:48.657Z,23.10
2018-07-19T20:45:51.865Z,22.90
2018-07-19T20:50:55.089Z,22.80
2018-07-19T20:55:58.277Z,22.70
2018-07-19T21:01:01.454Z,22.60
2018-07-19T21:06:04.629Z,22.70
2018-07-19T21:11:07.799Z,22.40
2018-07-19T21:16:11.019Z,22.30
2018-07-19T21:21:14.802Z,22.30
2018-07-19T21:26:18.009Z,22.40
2018-07-19T21:31:21.254Z,22.40
2018-07-19T21:36:30.921Z,22.50
2018-07-19T21:41:34.105Z,22.40
2018-07-19T21:46:37.277Z,22.20
2018-07-19T21:51:40.465Z,22.20
2018-07-19T21:56:43.786Z,22.10
2018-07-19T22:01:47.093Z,21.90
2018-07-19T22:06:50.893Z,21.90
2018-07-19T22:11:54.126Z,21.60
2018-07-19T22:16:57.391Z,21.40
2018-07-19T22:22:03.431Z,21.80
2018-07-19T22:27:06.804Z,21.50
2018-07-19T22:32:10.089Z,21.40
2018-07-19T22:37:13.290Z,21.30
2018-07-19T22:42:16.509Z,21.10
2018-07-19T22:47:20.813Z,20.80
2018-07-19T22:52:24.020Z,20.90
2018-07-19T22:57:27.234Z,20.90
2018-07-19T23:02:30.443Z,20.80
2018-07-19T23:07:33.666Z,20.80
2018-07-19T23:12:36.968Z,20.50
2018-07-19T23:17:40.287Z,20.60
2018-07-19T23:22:52.857Z,20.40
2018-07-19T23:27:57.290Z,20.50
2018-07-19T23:33:00.522Z,20.20
2018-07-19T23:38:06.643Z,20.10
2018-07-19T23:43:16.034Z,20.20
2018-07-19T23:48:19.242Z,20.00
2018-07-19T23:53:22.542Z,20.10
2018-07-19T23:58:25.741Z,20.00
